Time;durP1;ratioP1;P1;durP2;ratioP2;P2;SDS_P1;SDS_P2;PMS_P1;PMS_P2;Temp;Humidity;BMP_temperature;BMP_pressure;BME280_temperature;BME280_humidity;BME280_pressure;Samples;Min_cycle;Max_cycle;Signal;HPM_P1;HPM_P2
2022/07/10 00:01:50;;;;;;;3.58;1.00;;;16.80;97.10;;;;;;5026921;28;20092;-34
2022/07/10 00:04:16;;;;;;;2.00;0.80;;;16.80;97.10;;;;;;5028136;28;20126;-35
2022/07/10 00:06:42;;;;;;;3.00;0.80;;;16.80;97.10;;;;;;5027308;28;20037;-35
2022/07/10 00:09:08;;;;;;;1.85;0.80;;;16.80;97.20;;;;;;5027003;28;20033;-34
2022/07/10 00:11:33;;;;;;;2.25;0.82;;;16.80;97.20;;;;;;5027523;28;20060;-36
2022/07/10 00:13:59;;;;;;;2.83;0.73;;;16.80;97.30;;;;;;5027719;28;20033;-35
2022/07/10 00:16:25;;;;;;;4.22;0.80;;;16.90;97.30;;;;;;5026514;28;20033;-35
2022/07/10 00:18:51;;;;;;;2.72;0.90;;;16.90;97.20;;;;;;5028200;28;20075;-34
2022/07/10 00:21:16;;;;;;;2.40;0.88;;;16.90;97.30;;;;;;5027303;28;20021;-34
2022/07/10 00:23:42;;;;;;;2.63;1.00;;;16.80;97.30;;;;;;5026898;28;20358;-33
2022/07/10 00:26:08;;;;;;;4.65;1.15;;;16.90;97.40;;;;;;5027827;28;20018;-35
2022/07/10 00:28:36;;;;;;;3.88;1.33;;;16.80;97.40;;;;;;5027600;28;20037;-36
2022/07/10 00:31:02;;;;;;;2.58;0.70;;;16.80;97.50;;;;;;5027125;28;20013;-35
2022/07/10 00:33:27;;;;;;;2.05;1.00;;;16.80;97.50;;;;;;5027353;28;20029;-34
2022/07/10 00:35:53;;;;;;;4.78;0.90;;;16.80;97.60;;;;;;5027419;28;20097;-34
2022/07/10 00:38:19;;;;;;;3.10;0.82;;;16.80;97.60;;;;;;5026016;28;20047;-34
2022/07/10 00:40:45;;;;;;;2.65;1.00;;;16.70;97.70;;;;;;5027832;28;20049;-35
2022/07/10 00:43:10;;;;;;;2.80;1.00;;;16.70;97.70;;;;;;5027396;28;20179;-34
2022/07/10 00:45:36;;;;;;;3.28;0.88;;;16.70;97.80;;;;;;5024738;28;20483;-34
2022/07/10 00:48:01;;;;;;;1.92;0.90;;;16.60;97.80;;;;;;5026251;28;20048;-35
2022/07/10 00:50:28;;;;;;;2.80;1.17;;;16.60;97.90;;;;;;5026472;28;20033;-35
2022/07/10 00:52:54;;;;;;;2.78;1.00;;;16.60;98.00;;;;;;5026373;28;20032;-34
2022/07/10 00:55:20;;;;;;;3.25;0.93;;;16.60;98.00;;;;;;5027320;28;20021;-35
2022/07/10 00:57:46;;;;;;;1.95;0.70;;;16.60;98.00;;;;;;5026626;28;20022;-33
2022/07/10 01:00:11;;;;;;;2.65;1.00;;;16.60;98.00;;;;;;5026490;28;20032;-35
2022/07/10 01:02:41;;;;;;;3.08;0.95;;;16.50;98.00;;;;;;5026244;28;20026;-34
2022/07/10 01:05:07;;;;;;;1.20;0.73;;;16.50;98.10;;;;;;5027037;28;20524;-34
2022/07/10 01:07:32;;;;;;;2.50;0.80;;;16.60;98.00;;;;;;5026304;28;20047;-34
2022/07/10 01:09:59;;;;;;;2.35;0.90;;;16.60;98.00;;;;;;5027248;28;20372;-34
2022/07/10 01:12:26;;;;;;;4.10;0.90;;;16.60;98.00;;;;;;5025845;28;20400;-34
2022/07/10 01:14:51;;;;;;;1.77;0.80;;;16.60;98.00;;;;;;5027170;28;20071;-34
2022/07/10 01:17:17;;;;;;;2.53;0.82;;;16.70;98.00;;;;;;5026527;28;20436;-33
2022/07/10 01:19:43;;;;;;;2.33;0.60;;;16.60;97.90;;;;;;5025468;28;20030;-35
2022/07/10 01:22:08;;;;;;;4.50;0.77;;;16.50;97.90;;;;;;5026878;28;20624;-34
2022/07/10 01:24:34;;;;;;;1.80;0.80;;;16.50;98.00;;;;;;5025747;28;20026;-34
2022/07/10 01:27:00;;;;;;;2.42;0.98;;;16.40;98.00;;;;;;5026232;28;20432;-33
2022/07/10 01:29:26;;;;;;;2.03;0.70;;;16.40;98.10;;;;;;5025787;28;20051;-33
2022/07/10 01:31:51;;;;;;;2.33;1.02;;;16.40;98.10;;;;;;5026604;28;20658;-34
2022/07/10 01:34:17;;;;;;;2.65;0.90;;;16.40;98.10;;;;;;5025104;28;20025;-33
2022/07/10 01:36:42;;;;;;;4.00;0.98;;;16.30;98.10;;;;;;5026853;28;20030;-34
2022/07/10 01:39:08;;;;;;;1.75;0.90;;;16.30;98.20;;;;;;5026334;28;20424;-34
2022/07/10 01:41:34;;;;;;;2.80;1.10;;;16.30;98.30;;;;;;5025359;28;20021;-34
2022/07/10 01:44:01;;;;;;;2.22;0.90;;;16.30;98.30;;;;;;5026792;28;20250;-34
2022/07/10 01:46:30;;;;;;;2.03;1.00;;;16.30;98.30;;;;;;5025644;28;20034;-34
2022/07/10 01:48:56;;;;;;;4.13;0.95;;;16.30;98.40;;;;;;5024913;28;20029;-33
2022/07/10 01:51:22;;;;;;;3.05;1.00;;;16.20;98.40;;;;;;5025812;28;20040;-34
2022/07/10 01:53:48;;;;;;;2.63;0.85;;;16.20;98.50;;;;;;5026183;28;20021;-33
2022/07/10 01:56:14;;;;;;;3.97;1.10;;;16.20;98.60;;;;;;5025227;28;20402;-34
2022/07/10 01:58:41;;;;;;;1.95;0.80;;;16.20;98.60;;;;;;5025368;28;20126;-35
2022/07/10 02:01:07;;;;;;;2.40;0.80;;;16.20;98.70;;;;;;5026716;28;20018;-35
2022/07/10 02:06:17;;;;;;;4.53;1.33;;;16.20;98.80;;;;;;5025690;28;20084;-35
2022/07/10 02:08:42;;;;;;;2.17;0.90;;;16.20;98.80;;;;;;5024748;28;20034;-34
2022/07/10 02:11:08;;;;;;;2.65;0.90;;;16.20;98.90;;;;;;5026145;28;20017;-35
2022/07/10 02:13:34;;;;;;;2.80;0.85;;;16.20;98.90;;;;;;5025535;28;20044;-35
2022/07/10 02:15:59;;;;;;;3.60;1.33;;;16.20;98.90;;;;;;5024821;28;20362;-35
2022/07/10 02:18:25;;;;;;;3.45;1.10;;;16.20;99.00;;;;;;5025942;28;20120;-35
2022/07/10 02:20:52;;;;;;;1.83;0.75;;;16.20;99.10;;;;;;5025917;28;20076;-35
2022/07/10 02:23:18;;;;;;;4.57;1.08;;;16.10;99.00;;;;;;5025054;28;20021;-35
2022/07/10 02:25:44;;;;;;;3.17;0.95;;;16.10;99.10;;;;;;5026049;28;20100;-34
2022/07/10 02:28:10;;;;;;;2.45;1.05;;;16.10;99.10;;;;;;5025669;28;20049;-35
2022/07/10 02:30:36;;;;;;;2.85;0.93;;;16.10;99.20;;;;;;5024469;28;20493;-34
2022/07/10 02:33:01;;;;;;;3.58;1.10;;;16.10;99.20;;;;;;5026495;28;20018;-35
2022/07/10 02:35:27;;;;;;;1.13;0.73;;;16.10;99.30;;;;;;5025476;28;20018;-35
2022/07/10 02:37:53;;;;;;;2.63;1.15;;;16.00;99.30;;;;;;5025500;28;20427;-34
2022/07/10 02:40:18;;;;;;;1.42;0.90;;;16.00;99.30;;;;;;5026117;28;20098;-34
2022/07/10 02:42:44;;;;;;;1.83;0.82;;;16.00;99.40;;;;;;5025639;28;20072;-34
2022/07/10 02:45:10;;;;;;;1.50;0.90;;;16.10;99.50;;;;;;5025267;28;20630;-34
2022/07/10 02:47:35;;;;;;;3.50;0.80;;;16.00;99.40;;;;;;5025450;28;20037;-34
2022/07/10 02:50:01;;;;;;;2.10;1.02;;;16.00;99.40;;;;;;5026394;28;20128;-33
2022/07/10 02:52:26;;;;;;;2.33;0.90;;;16.00;99.50;;;;;;5024184;28;20052;-34
2022/07/10 02:54:52;;;;;;;3.88;1.00;;;16.00;99.50;;;;;;5026391;28;20105;-34
2022/07/10 02:57:18;;;;;;;5.60;0.95;;;16.00;99.60;;;;;;5025613;28;20029;-34
2022/07/10 02:59:44;;;;;;;2.97;1.35;;;16.00;99.70;;;;;;5024963;28;20037;-35
2022/07/10 03:02:09;;;;;;;2.67;0.98;;;16.00;99.70;;;;;;5025496;28;20029;-33
2022/07/10 03:04:35;;;;;;;1.58;0.90;;;16.00;99.70;;;;;;5024222;28;20049;-35
2022/07/10 03:07:03;;;;;;;1.48;0.75;;;16.00;99.80;;;;;;5024768;28;20022;-34
2022/07/10 03:09:28;;;;;;;2.53;1.02;;;15.90;99.80;;;;;;5027446;28;20047;-34
2022/07/10 03:11:54;;;;;;;4.43;0.90;;;15.90;99.90;;;;;;5028426;28;20026;-33
2022/07/10 03:14:19;;;;;;;2.63;0.93;;;16.00;99.80;;;;;;5029091;28;20029;-34
2022/07/10 03:16:45;;;;;;;4.55;0.95;;;16.00;99.90;;;;;;5028675;28;20611;-34
2022/07/10 03:19:10;;;;;;;1.67;0.90;;;16.00;99.90;;;;;;5028605;28;20053;-34
2022/07/10 03:21:36;;;;;;;1.83;0.88;;;16.00;99.90;;;;;;5028536;28;20045;-33
2022/07/10 03:24:02;;;;;;;1.90;1.00;;;16.00;99.90;;;;;;5028818;28;20048;-33
2022/07/10 03:26:29;;;;;;;3.10;0.90;;;16.00;99.90;;;;;;5027579;28;20021;-34
2022/07/10 03:28:55;;;;;;;1.58;0.82;;;16.00;99.90;;;;;;5027635;28;20482;-35
2022/07/10 03:31:20;;;;;;;1.95;0.82;;;15.90;99.90;;;;;;5028676;28;20536;-33
2022/07/10 03:33:46;;;;;;;2.28;0.80;;;15.90;99.90;;;;;;5027752;28;20381;-34
2022/07/10 03:36:13;;;;;;;2.28;1.00;;;15.90;99.90;;;;;;5029579;28;20021;-33
2022/07/10 03:38:39;;;;;;;1.58;0.75;;;15.90;99.90;;;;;;5028617;28;20036;-33
2022/07/10 03:41:04;;;;;;;1.58;0.70;;;15.90;99.90;;;;;;5027980;28;20037;-38
2022/07/10 03:43:30;;;;;;;3.70;1.23;;;15.90;99.90;;;;;;5028356;28;20113;-35
2022/07/10 03:45:57;;;;;;;1.80;0.98;;;16.00;99.90;;;;;;5028766;28;20028;-33
2022/07/10 03:48:22;;;;;;;2.80;1.15;;;15.90;99.90;;;;;;5027599;28;20124;-37
2022/07/10 03:50:50;;;;;;;1.35;0.85;;;16.00;99.90;;;;;;5028646;28;20168;-34
2022/07/10 03:53:16;;;;;;;2.38;0.80;;;16.00;99.90;;;;;;5027837;28;20731;-34
2022/07/10 03:55:42;;;;;;;3.05;0.90;;;16.00;99.90;;;;;;5027432;28;20083;-35
2022/07/10 03:58:08;;;;;;;1.92;0.82;;;16.00;99.90;;;;;;5028835;28;20048;-33
2022/07/10 04:00:34;;;;;;;2.33;0.70;;;16.00;99.90;;;;;;5028290;28;20102;-34
2022/07/10 04:03:05;;;;;;;4.93;1.20;;;16.00;99.90;;;;;;5027493;28;20077;-34
2022/07/10 04:05:32;;;;;;;3.20;1.75;;;16.00;99.90;;;;;;5027698;28;20516;-35
2022/07/10 04:07:58;;;;;;;2.92;0.73;;;16.00;99.90;;;;;;5027748;28;20069;-35
2022/07/10 04:10:25;;;;;;;4.40;0.98;;;16.00;99.90;;;;;;5027231;28;20049;-34
2022/07/10 04:12:51;;;;;;;1.17;0.75;;;16.00;99.90;;;;;;5029059;28;20482;-34
2022/07/10 04:15:17;;;;;;;2.78;0.90;;;16.00;99.90;;;;;;5026996;28;20488;-34
2022/07/10 04:17:43;;;;;;;1.23;0.80;;;16.10;99.90;;;;;;5027730;28;20021;-34
2022/07/10 04:20:09;;;;;;;1.60;0.90;;;16.10;99.90;;;;;;5027287;28;20028;-34
2022/07/10 04:22:35;;;;;;;2.42;0.95;;;16.10;99.90;;;;;;5026575;28;20056;-34
2022/07/10 04:25:02;;;;;;;2.58;0.90;;;16.10;99.90;;;;;;5027720;28;20106;-33
2022/07/10 04:27:28;;;;;;;3.30;0.93;;;16.10;99.90;;;;;;5027925;28;20045;-34
2022/07/10 04:29:54;;;;;;;1.60;0.90;;;16.20;99.90;;;;;;5026532;28;20089;-34
2022/07/10 04:32:19;;;;;;;3.25;1.00;;;16.20;99.90;;;;;;5027932;28;20064;-35
2022/07/10 04:34:45;;;;;;;4.15;1.08;;;16.20;99.90;;;;;;5027582;28;20456;-34
2022/07/10 04:37:10;;;;;;;3.45;0.93;;;16.20;99.90;;;;;;5027304;28;20017;-34
2022/07/10 04:39:39;;;;;;;2.53;1.00;;;16.20;99.90;;;;;;5026918;28;20014;-34
2022/07/10 04:42:06;;;;;;;2.78;1.00;;;16.20;99.90;;;;;;5028111;28;20022;-34
2022/07/10 04:44:32;;;;;;;2.85;0.80;;;16.20;99.90;;;;;;5026623;28;20022;-34
2022/07/10 04:46:58;;;;;;;4.50;1.10;;;16.20;99.90;;;;;;5027355;28;20455;-34
2022/07/10 04:49:23;;;;;;;3.88;0.80;;;16.20;99.90;;;;;;5026738;28;20047;-35
2022/07/10 04:51:49;;;;;;;4.82;1.05;;;16.30;99.90;;;;;;5026863;28;20475;-35
2022/07/10 04:54:14;;;;;;;2.10;0.70;;;16.30;99.90;;;;;;5026513;28;20051;-36
2022/07/10 04:56:40;;;;;;;4.22;1.02;;;16.30;99.90;;;;;;5026609;28;20485;-35
2022/07/10 04:59:06;;;;;;;3.65;1.00;;;16.30;99.90;;;;;;5026462;28;20540;-34
2022/07/10 05:01:31;;;;;;;2.60;1.10;;;16.30;99.90;;;;;;5026455;28;20048;-35
2022/07/10 05:03:57;;;;;;;2.20;0.90;;;16.40;99.90;;;;;;5026362;28;20041;-35
2022/07/10 05:06:23;;;;;;;3.08;0.90;;;16.40;99.90;;;;;;5025910;28;20449;-35
2022/07/10 05:08:49;;;;;;;3.22;1.10;;;16.50;99.90;;;;;;5026623;28;20068;-35
2022/07/10 05:11:15;;;;;;;2.88;1.00;;;16.50;99.90;;;;;;5026289;28;20049;-34
2022/07/10 05:13:43;;;;;;;2.88;0.90;;;16.50;99.90;;;;;;5026463;28;20017;-35
2022/07/10 05:16:09;;;;;;;2.70;1.00;;;16.60;99.90;;;;;;5026518;28;20067;-35
2022/07/10 05:18:34;;;;;;;2.45;0.80;;;16.60;99.90;;;;;;5025303;28;20032;-34
2022/07/10 05:21:00;;;;;;;2.90;0.95;;;16.60;99.90;;;;;;5026819;28;20064;-35
2022/07/10 05:23:25;;;;;;;4.38;1.00;;;16.60;99.90;;;;;;5025846;28;20034;-34
2022/07/10 05:25:51;;;;;;;1.38;0.77;;;16.60;99.90;;;;;;5026067;28;20076;-34
2022/07/10 05:28:16;;;;;;;4.38;0.90;;;16.60;99.90;;;;;;5026339;28;20555;-34
2022/07/10 05:30:42;;;;;;;2.90;0.90;;;16.60;99.90;;;;;;5025833;28;20017;-35
2022/07/10 05:33:08;;;;;;;3.95;1.00;;;16.60;99.90;;;;;;5024476;28;20517;-35
2022/07/10 05:35:34;;;;;;;3.63;0.98;;;16.60;99.90;;;;;;5026435;28;20022;-35
2022/07/10 05:37:59;;;;;;;2.60;1.10;;;16.70;99.90;;;;;;5025865;28;20121;-35
2022/07/10 05:40:25;;;;;;;2.83;1.10;;;16.70;99.90;;;;;;5025456;28;20025;-33
2022/07/10 05:42:51;;;;;;;3.22;0.93;;;16.70;99.90;;;;;;5025843;28;20453;-35
2022/07/10 05:45:18;;;;;;;3.55;0.90;;;16.80;99.90;;;;;;5025950;28;20030;-34
2022/07/10 05:47:44;;;;;;;5.75;1.80;;;16.80;99.90;;;;;;5025240;28;20037;-35
2022/07/10 05:50:11;;;;;;;3.03;0.90;;;16.80;99.90;;;;;;5026474;28;20036;-34
2022/07/10 05:52:37;;;;;;;5.03;1.10;;;16.90;99.90;;;;;;5025588;28;20052;-34
2022/07/10 05:55:03;;;;;;;3.78;0.95;;;16.80;99.90;;;;;;5025914;28;20026;-34
2022/07/10 05:57:31;;;;;;;2.05;0.90;;;16.90;99.90;;;;;;5025777;28;20021;-34
2022/07/10 05:59:56;;;;;;;3.97;1.13;;;16.90;99.90;;;;;;5026418;28;20026;-35
2022/07/10 06:02:22;;;;;;;2.47;0.70;;;16.90;99.90;;;;;;5025063;28;20025;-33
2022/07/10 06:04:47;;;;;;;2.58;1.00;;;16.90;99.90;;;;;;5024726;28;20049;-34
2022/07/10 06:07:13;;;;;;;2.53;0.90;;;16.90;99.90;;;;;;5023553;28;20489;-35
2022/07/10 06:09:39;;;;;;;3.92;1.23;;;16.90;99.90;;;;;;5014445;28;20485;-35
2022/07/10 06:12:04;;;;;;;4.05;1.10;;;16.90;99.90;;;;;;5025439;28;20033;-33
2022/07/10 06:14:30;;;;;;;2.50;0.80;;;16.90;99.90;;;;;;5009733;28;20021;-35
2022/07/10 06:16:55;;;;;;;2.10;1.02;;;17.00;99.90;;;;;;5024016;28;20025;-34
2022/07/10 06:19:21;;;;;;;4.53;1.35;;;17.00;99.90;;;;;;5012004;28;20477;-33
2022/07/10 06:21:47;;;;;;;6.10;1.42;;;16.80;99.90;;;;;;5023368;28;20040;-34
2022/07/10 06:24:12;;;;;;;3.05;1.10;;;16.70;99.90;;;;;;5013439;28;20445;-35
2022/07/10 06:26:38;;;;;;;5.60;1.27;;;16.60;99.90;;;;;;5023873;28;20392;-35
2022/07/10 06:29:03;;;;;;;2.65;0.90;;;16.60;99.90;;;;;;5015326;28;20040;-35
2022/07/10 06:31:29;;;;;;;5.68;1.13;;;16.60;99.90;;;;;;5020825;28;20018;-35
2022/07/10 06:33:55;;;;;;;3.92;1.17;;;16.60;99.90;;;;;;5018492;28;20033;-36
2022/07/10 06:36:20;;;;;;;3.70;1.10;;;16.60;99.90;;;;;;5017889;28;20032;-35
2022/07/10 06:38:46;;;;;;;3.20;1.10;;;16.50;99.90;;;;;;5019881;28;20445;-35
2022/07/10 06:41:11;;;;;;;3.05;1.30;;;16.60;99.90;;;;;;5016172;28;20643;-35
2022/07/10 06:43:37;;;;;;;3.17;1.20;;;16.60;99.90;;;;;;5023344;28;20055;-35
2022/07/10 06:46:03;;;;;;;4.00;1.20;;;16.60;99.90;;;;;;5017901;28;20078;-34
2022/07/10 06:48:29;;;;;;;3.08;1.15;;;16.60;99.90;;;;;;5027094;28;20037;-33
2022/07/10 06:50:54;;;;;;;4.60;0.98;;;16.60;99.90;;;;;;5017373;28;20037;-35
2022/07/10 06:53:24;;;;;;;4.13;1.23;;;16.50;99.90;;;;;;5028455;28;20048;-35
2022/07/10 06:55:50;;;;;;;4.05;0.90;;;16.60;99.90;;;;;;5015957;28;20535;-35
2022/07/10 06:58:16;;;;;;;3.20;1.08;;;16.60;99.90;;;;;;5028140;28;20044;-34
2022/07/10 07:00:42;;;;;;;5.28;1.40;;;16.60;99.90;;;;;;5015571;28;20430;-34
2022/07/10 07:03:07;;;;;;;8.50;1.60;;;16.50;99.90;;;;;;5028617;28;20037;-35
2022/07/10 07:05:33;;;;;;;6.90;1.70;;;16.40;99.90;;;;;;5016021;28;20528;-35
2022/07/10 07:07:59;;;;;;;3.17;1.17;;;16.30;99.90;;;;;;5027100;28;20033;-35
2022/07/10 07:10:24;;;;;;;6.25;1.58;;;16.20;99.90;;;;;;5018908;28;20053;-34
2022/07/10 07:12:50;;;;;;;4.40;1.20;;;16.20;99.90;;;;;;5024248;28;20048;-35
2022/07/10 07:15:16;;;;;;;3.30;1.35;;;16.30;99.90;;;;;;5021671;28;20216;-35
2022/07/10 07:18:07;;;;;;;4.22;1.40;;;16.30;99.90;;;;;;5021371;28;20025;-35
2022/07/10 07:23:18;;;;;;;6.85;1.35;;;16.30;99.90;;;;;;5025347;28;20165;-34
2022/07/10 07:25:46;;;;;;;3.78;1.23;;;16.40;99.90;;;;;;5019862;28;20057;-34
2022/07/10 07:28:12;;;;;;;2.88;0.90;;;16.40;99.90;;;;;;5022903;28;20485;-34
2022/07/10 07:30:38;;;;;;;3.33;1.30;;;16.40;99.90;;;;;;5023457;28;20053;-34
2022/07/10 07:33:03;;;;;;;6.43;1.45;;;16.40;99.90;;;;;;5019895;28;20029;-34
2022/07/10 07:35:29;;;;;;;2.15;0.82;;;16.50;99.90;;;;;;5025366;28;20053;-34
2022/07/10 07:37:55;;;;;;;5.22;1.40;;;16.50;99.90;;;;;;5018090;28;20354;-34
2022/07/10 07:40:23;;;;;;;2.90;1.20;;;16.50;99.90;;;;;;5025665;28;20025;-34
2022/07/10 07:42:55;;;;;;;4.40;1.38;;;16.60;99.90;;;;;;5016746;28;20025;-35
2022/07/10 07:45:22;;;;;;;3.15;1.40;;;16.60;99.90;;;;;;5025604;28;20029;-34
2022/07/10 07:47:49;;;;;;;4.80;2.05;;;16.70;99.90;;;;;;5016055;28;20489;-34
2022/07/10 07:50:17;;;;;;;6.35;1.30;;;16.80;99.90;;;;;;5027774;28;20025;-35
2022/07/10 07:52:43;;;;;;;2.08;1.10;;;16.80;99.90;;;;;;5014916;28;20022;-35
2022/07/10 07:55:10;;;;;;;2.83;1.10;;;16.90;99.90;;;;;;5026219;28;20030;-33
2022/07/10 07:57:36;;;;;;;1.90;1.05;;;16.90;99.90;;;;;;5014186;28;20036;-35
2022/07/10 08:00:03;;;;;;;5.40;1.52;;;17.00;99.90;;;;;;5026436;28;20040;-35
2022/07/10 08:02:28;;;;;;;3.30;1.35;;;16.90;99.90;;;;;;5015416;28;20069;-37
2022/07/10 08:04:54;;;;;;;4.97;1.48;;;16.90;99.90;;;;;;5018214;28;20081;-35
2022/07/10 08:07:19;;;;;;;3.40;1.38;;;16.90;99.90;;;;;;5014959;28;20055;-34
2022/07/10 08:09:45;;;;;;;5.68;1.77;;;16.90;99.90;;;;;;5010861;28;20088;-34
2022/07/10 08:12:10;;;;;;;3.75;1.40;;;17.00;99.90;;;;;;5013421;28;20010;-34
2022/07/10 08:14:36;;;;;;;4.18;1.58;;;17.10;99.90;;;;;;5012598;28;20509;-36
2022/07/10 08:17:02;;;;;;;4.88;1.25;;;17.10;99.90;;;;;;5011200;28;20362;-35
2022/07/10 08:19:27;;;;;;;4.35;1.33;;;17.10;99.90;;;;;;5015216;28;20108;-35
2022/07/10 08:21:53;;;;;;;3.78;1.20;;;17.20;99.90;;;;;;5007629;28;20018;-35
2022/07/10 08:24:18;;;;;;;3.53;1.23;;;17.30;99.90;;;;;;5017837;28;20030;-36
2022/07/10 08:26:44;;;;;;;3.90;1.63;;;17.40;99.90;;;;;;5009250;28;20042;-36
2022/07/10 08:29:09;;;;;;;7.38;1.60;;;17.50;99.90;;;;;;5022298;28;20025;-34
2022/07/10 08:31:35;;;;;;;4.93;1.60;;;17.50;99.90;;;;;;5035096;28;20443;-34
2022/07/10 08:34:01;;;;;;;4.43;1.67;;;17.50;99.90;;;;;;5027683;28;20068;-34
2022/07/10 08:36:26;;;;;;;3.83;1.30;;;17.50;99.90;;;;;;5026170;28;20108;-35
2022/07/10 08:38:56;;;;;;;5.53;1.10;;;17.60;99.90;;;;;;5026889;28;20029;-36
2022/07/10 08:41:26;;;;;;;5.50;1.23;;;17.50;99.90;;;;;;5027203;28;20582;-35
2022/07/10 08:43:52;;;;;;;4.28;1.40;;;17.60;99.90;;;;;;5026840;28;20076;-35
2022/07/10 08:46:18;;;;;;;2.42;1.00;;;17.60;99.90;;;;;;5026886;28;20441;-34
2022/07/10 08:48:54;;;;;;;1.55;0.88;;;17.70;99.90;;;;;;5017110;28;20037;-37
2022/07/10 08:51:40;;;;;;;6.28;1.75;;;17.70;99.90;;;;;;5023188;28;20381;-35
2022/07/10 08:54:08;;;;;;;7.60;1.70;;;17.80;99.90;;;;;;5016653;28;20025;-35
2022/07/10 08:56:34;;;;;;;4.70;1.58;;;17.70;99.90;;;;;;5007742;28;20037;-36
2022/07/10 08:59:05;;;;;;;3.78;1.20;;;17.70;99.90;;;;;;5015344;28;20037;-35
2022/07/10 09:01:30;;;;;;;3.28;1.30;;;17.70;99.90;;;;;;5009964;28;20123;-35
2022/07/10 09:03:56;;;;;;;3.90;1.52;;;17.80;99.90;;;;;;5012411;28;20144;-35
2022/07/10 09:06:21;;;;;;;2.28;1.10;;;17.90;99.90;;;;;;5007866;28;20079;-37
2022/07/10 09:08:59;;;;;;;3.58;1.13;;;18.00;99.90;;;;;;5010244;28;20125;-35
2022/07/10 09:11:28;;;;;;;3.85;1.38;;;18.10;99.90;;;;;;5012528;28;20462;-38
2022/07/10 09:13:56;;;;;;;10.05;1.77;;;18.20;99.90;;;;;;5010301;28;20036;-35
2022/07/10 09:16:25;;;;;;;4.70;1.48;;;18.40;99.90;;;;;;5014890;28;20018;-35
2022/07/10 09:18:51;;;;;;;4.68;1.40;;;18.60;99.90;;;;;;5008020;28;20030;-35
2022/07/10 09:21:17;;;;;;;3.92;1.15;;;18.70;99.90;;;;;;5017955;28;20017;-35
2022/07/10 09:23:43;;;;;;;2.08;1.10;;;18.80;99.90;;;;;;5007831;28;20029;-36
2022/07/10 09:26:08;;;;;;;3.13;1.20;;;19.00;99.90;;;;;;5017383;28;20041;-35
2022/07/10 09:28:34;;;;;;;2.85;1.10;;;19.00;99.90;;;;;;5006983;28;20136;-35
2022/07/10 09:30:59;;;;;;;2.95;1.25;;;19.00;99.90;;;;;;5018815;28;20450;-35
2022/07/10 09:33:27;;;;;;;3.17;1.33;;;19.00;99.90;;;;;;5005327;28;20030;-36
2022/07/10 09:36:04;;;;;;;2.40;1.10;;;19.00;99.90;;;;;;5018799;28;20026;-35
2022/07/10 09:38:39;;;;;;;2.35;1.08;;;19.10;99.90;;;;;;5005984;28;20042;-34
2022/07/10 09:41:30;;;;;;;4.75;1.50;;;19.10;99.90;;;;;;5018558;28;20056;-35
2022/07/10 09:44:03;;;;;;;3.15;1.33;;;19.20;99.90;;;;;;5006699;28;20033;-36
2022/07/10 09:46:36;;;;;;;3.00;1.10;;;19.10;99.90;;;;;;5025290;28;20215;-38
2022/07/10 09:49:07;;;;;;;4.47;1.40;;;19.20;99.90;;;;;;5026796;28;20041;-35
2022/07/10 09:51:36;;;;;;;3.22;1.27;;;19.20;99.90;;;;;;5024976;28;21060;-36
2022/07/10 09:54:03;;;;;;;2.05;1.02;;;19.20;99.90;;;;;;5025609;28;20068;-35
2022/07/10 09:56:52;;;;;;;3.33;1.50;;;19.20;99.90;;;;;;5025299;28;20033;-34
2022/07/10 09:59:19;;;;;;;2.95;0.90;;;19.20;99.90;;;;;;5025491;28;20051;-35
2022/07/10 10:01:49;;;;;;;2.75;1.10;;;19.10;99.90;;;;;;5024472;28;20029;-35
2022/07/10 10:04:20;;;;;;;1.63;1.00;;;19.20;99.90;;;;;;5025852;28;20183;-34
2022/07/10 10:06:51;;;;;;;7.20;1.45;;;19.40;99.90;;;;;;5024884;28;20030;-34
2022/07/10 10:09:26;;;;;;;2.15;1.10;;;19.50;99.90;;;;;;5006106;28;20049;-35
2022/07/10 10:12:23;;;;;;;3.67;1.42;;;19.60;99.80;;;;;;5021752;28;20294;-35
2022/07/10 10:14:49;;;;;;;3.33;1.30;;;19.70;99.00;;;;;;5005302;28;20044;-35
2022/07/10 10:17:17;;;;;;;5.00;1.10;;;19.70;98.90;;;;;;5023069;28;20029;-35
2022/07/10 10:22:29;;;;;;;2.50;1.00;;;19.70;99.20;;;;;;5024506;28;20048;-36
2022/07/10 10:24:55;;;;;;;2.90;1.10;;;19.80;98.30;;;;;;5022929;28;20052;-34
2022/07/10 10:27:23;;;;;;;3.33;1.17;;;19.90;98.30;;;;;;5025212;28;20389;-34
2022/07/10 10:29:50;;;;;;;2.95;1.23;;;19.90;98.40;;;;;;5025382;28;20037;-35
2022/07/10 10:32:16;;;;;;;2.60;0.90;;;19.80;98.10;;;;;;5025438;28;20029;-35
2022/07/10 10:34:43;;;;;;;2.28;0.90;;;19.80;98.30;;;;;;5025732;28;20029;-35
2022/07/10 10:37:27;;;;;;;1.30;0.90;;;19.80;98.40;;;;;;5024460;28;20018;-35
2022/07/10 10:39:55;;;;;;;2.10;1.02;;;19.90;98.60;;;;;;5025354;28;20031;-37
2022/07/10 10:42:42;;;;;;;3.53;1.08;;;20.00;98.30;;;;;;5024407;28;20043;-35
2022/07/10 10:45:31;;;;;;;2.25;0.90;;;20.20;98.30;;;;;;5006620;28;20049;-36
2022/07/10 10:48:09;;;;;;;2.47;1.00;;;20.30;97.70;;;;;;5019737;28;20080;-35
2022/07/10 10:50:52;;;;;;;1.55;0.90;;;20.30;97.70;;;;;;5004630;28;20073;-35
2022/07/10 10:53:26;;;;;;;3.58;1.20;;;20.30;97.80;;;;;;5021314;28;20108;-36
2022/07/10 10:56:04;;;;;;;2.30;1.13;;;20.30;97.60;;;;;;5005898;28;20485;-34
2022/07/10 10:58:41;;;;;;;3.60;0.93;;;20.30;97.20;;;;;;5020976;28;20503;-34
2022/07/10 11:01:25;;;;;;;1.88;0.98;;;20.30;97.00;;;;;;5005640;28;20022;-34
2022/07/10 11:04:10;;;;;;;1.05;0.75;;;20.30;97.10;;;;;;5022289;28;20061;-34
2022/07/10 11:06:53;;;;;;;1.52;0.75;;;20.40;97.40;;;;;;5024965;28;20038;-35
2022/07/10 11:09:24;;;;;;;1.55;0.80;;;20.50;97.50;;;;;;5023385;28;20056;-35
2022/07/10 11:12:02;;;;;;;2.20;0.90;;;20.60;97.40;;;;;;5025302;28;20100;-37
2022/07/10 11:14:30;;;;;;;2.70;0.93;;;20.80;97.00;;;;;;5025088;28;20032;-36
2022/07/10 11:16:56;;;;;;;1.38;0.80;;;20.90;96.70;;;;;;5024902;28;20029;-35
2022/07/10 11:19:27;;;;;;;1.23;0.90;;;21.00;96.80;;;;;;5024289;28;20025;-34
2022/07/10 11:22:10;;;;;;;2.80;1.00;;;21.10;95.80;;;;;;5024917;28;20068;-36
2022/07/10 11:25:06;;;;;;;3.00;1.27;;;21.00;95.90;;;;;;5023083;28;20485;-34
2022/07/10 11:28:01;;;;;;;2.55;1.00;;;20.90;96.10;;;;;;5024458;28;20021;-35
2022/07/10 11:30:27;;;;;;;3.95;0.95;;;20.70;96.50;;;;;;5025741;28;20025;-36
2022/07/10 11:32:53;;;;;;;1.58;1.02;;;20.60;96.70;;;;;;5026840;28;20381;-36
2022/07/10 11:35:19;;;;;;;1.33;0.77;;;20.70;96.80;;;;;;5027571;28;20037;-35
2022/07/10 11:37:54;;;;;;;2.20;1.10;;;20.80;96.80;;;;;;5027877;28;20037;-36
2022/07/10 11:40:20;;;;;;;4.70;1.45;;;20.90;96.50;;;;;;5020433;28;20045;-34
2022/07/10 11:42:55;;;;;;;2.65;1.20;;;20.90;96.40;;;;;;5008485;28;20427;-36
2022/07/10 11:45:32;;;;;;;3.05;1.10;;;20.70;96.60;;;;;;5020266;28;20026;-36
2022/07/10 11:47:59;;;;;;;2.47;0.95;;;20.60;97.00;;;;;;5008833;28;20087;-35
2022/07/10 11:50:26;;;;;;;3.15;1.08;;;20.60;96.80;;;;;;5020485;28;20029;-36
2022/07/10 11:52:53;;;;;;;1.92;1.10;;;20.70;96.90;;;;;;5007855;28;20073;-35
2022/07/10 11:55:21;;;;;;;3.13;1.15;;;20.90;96.80;;;;;;5019948;28;20025;-33
2022/07/10 11:57:50;;;;;;;3.08;1.10;;;20.90;96.70;;;;;;5008852;28;20072;-34
2022/07/10 12:00:26;;;;;;;2.25;1.08;;;21.00;96.60;;;;;;5017760;28;20112;-35
2022/07/10 12:02:53;;;;;;;2.80;1.38;;;21.10;96.40;;;;;;5008853;28;20495;-35
2022/07/10 12:05:36;;;;;;;2.22;1.00;;;21.20;96.30;;;;;;5010045;28;20405;-35
2022/07/10 12:08:02;;;;;;;2.15;1.00;;;21.10;96.20;;;;;;5007609;28;20383;-35
2022/07/10 12:10:30;;;;;;;1.40;0.90;;;21.10;96.20;;;;;;5015620;28;20049;-35
2022/07/10 12:13:06;;;;;;;2.90;1.15;;;21.20;96.20;;;;;;5024963;28;20039;-36
2022/07/10 12:15:37;;;;;;;2.75;1.10;;;21.20;95.70;;;;;;5018815;28;20032;-35
2022/07/10 12:18:05;;;;;;;5.53;1.10;;;21.20;95.60;;;;;;5024596;28;20041;-35
2022/07/10 12:20:31;;;;;;;1.00;0.88;;;21.10;95.70;;;;;;5020101;28;20088;-35
2022/07/10 12:22:57;;;;;;;4.82;1.40;;;21.00;96.00;;;;;;5021896;28;20053;-35
2022/07/10 12:25:24;;;;;;;3.78;1.10;;;21.00;95.90;;;;;;5023853;28;20071;-35
2022/07/10 12:27:56;;;;;;;1.02;0.80;;;21.00;96.10;;;;;;5018635;28;20037;-35
2022/07/10 12:30:22;;;;;;;1.83;1.05;;;21.10;96.10;;;;;;5024953;28;20033;-36
2022/07/10 12:32:47;;;;;;;2.08;0.90;;;21.20;95.90;;;;;;5016925;28;20064;-34
2022/07/10 12:35:15;;;;;;;3.05;1.20;;;21.30;95.90;;;;;;5025496;28;20030;-35
2022/07/10 12:37:50;;;;;;;1.20;0.70;;;21.40;95.70;;;;;;5016144;28;20056;-35
2022/07/10 12:40:34;;;;;;;1.65;0.90;;;21.50;95.30;;;;;;5025674;28;20034;-35
2022/07/10 12:43:04;;;;;;;3.63;0.90;;;21.50;94.80;;;;;;5016055;28;20507;-35
2022/07/10 12:45:29;;;;;;;1.75;0.90;;;21.50;94.40;;;;;;5025525;28;20048;-36
2022/07/10 12:47:55;;;;;;;2.05;0.95;;;21.50;94.40;;;;;;5016616;28;20508;-36
2022/07/10 12:50:23;;;;;;;1.88;1.00;;;21.60;94.70;;;;;;5026610;28;20033;-36
2022/07/10 12:52:48;;;;;;;1.35;0.85;;;21.70;94.50;;;;;;5026410;28;20168;-36
2022/07/10 12:55:17;;;;;;;3.50;1.08;;;21.80;94.10;;;;;;5027179;28;20396;-35
2022/07/10 12:57:49;;;;;;;1.30;0.80;;;21.80;93.50;;;;;;5022748;28;20022;-34
2022/07/10 13:00:18;;;;;;;2.25;1.10;;;21.80;93.70;;;;;;5016039;28;20057;-34